Time;durP1;ratioP1;P1;durP2;ratioP2;P2;SDS_P1;SDS_P2;PMS_P1;PMS_P2;Temp;Humidity;BMP_temperature;BMP_pressure;BME280_temperature;BME280_humidity;BME280_pressure;Samples;Min_cycle;Max_cycle;Signal;HPM_P1;HPM_P2
2023/07/05 00:00:17;;;;;;;10.05;3.10;;;15.80;99.90;;;;;;4990133;28;20279;-95
2023/07/05 00:02:42;;;;;;;10.05;3.10;;;15.80;99.90;;;;;;4988844;28;20176;-96
2023/07/05 00:05:08;;;;;;;8.93;3.28;;;15.90;99.90;;;;;;5084921;23;20269;-96
2023/07/05 00:07:34;;;;;;;9.07;3.45;;;15.90;99.90;;;;;;5010156;28;20684;-95
2023/07/05 00:10:00;;;;;;;8.07;3.30;;;15.90;99.90;;;;;;5027347;28;20201;-95
2023/07/05 00:12:26;;;;;;;6.95;3.28;;;15.90;99.90;;;;;;5008795;28;20190;-96
2023/07/05 00:14:59;;;;;;;10.45;3.15;;;15.90;99.90;;;;;;5010307;28;20175;-93
2023/07/05 00:17:25;;;;;;;9.25;3.33;;;15.90;99.90;;;;;;5008245;28;20168;-94
2023/07/05 00:19:52;;;;;;;10.98;2.95;;;16.00;99.90;;;;;;5010842;28;20269;-94
2023/07/05 00:22:18;;;;;;;6.28;3.03;;;16.00;99.90;;;;;;5007099;28;20175;-95
2023/07/05 00:24:45;;;;;;;7.25;3.45;;;16.00;99.90;;;;;;5006618;28;20181;-96
2023/07/05 00:27:13;;;;;;;6.32;2.95;;;16.00;99.90;;;;;;5005059;28;20183;-96
2023/07/05 00:29:39;;;;;;;10.68;3.13;;;16.00;99.90;;;;;;5007618;23;20235;-94
2023/07/05 00:32:05;;;;;;;8.60;2.88;;;16.10;99.90;;;;;;4998177;28;20175;-94
2023/07/05 00:34:31;;;;;;;9.13;3.17;;;16.10;99.90;;;;;;4997675;28;20195;-95
2023/07/05 00:36:57;;;;;;;8.30;2.80;;;16.10;99.90;;;;;;4997065;28;20171;-93
2023/07/05 00:39:23;;;;;;;5.53;2.97;;;16.10;99.90;;;;;;4997832;28;20202;-94
2023/07/05 00:41:49;;;;;;;10.68;3.10;;;16.10;99.90;;;;;;4997509;28;20164;-93
2023/07/05 00:44:14;;;;;;;12.02;3.75;;;16.10;99.90;;;;;;4997482;28;20191;-93
2023/07/05 00:46:47;;;;;;;8.32;3.08;;;16.00;99.90;;;;;;4997505;28;20163;-95
2023/07/05 00:49:17;;;;;;;6.25;2.40;;;16.00;99.90;;;;;;4997757;28;20179;-93
2023/07/05 00:51:47;;;;;;;6.03;2.55;;;16.00;99.90;;;;;;4997512;28;20172;-93
2023/07/05 00:54:15;;;;;;;7.65;3.42;;;16.00;99.90;;;;;;4997457;28;20294;-94
2023/07/05 00:56:48;;;;;;;8.45;3.10;;;16.00;99.90;;;;;;4997488;28;20170;-94
2023/07/05 00:59:15;;;;;;;7.97;3.03;;;16.00;99.90;;;;;;4997493;28;20211;-94
2023/07/05 01:01:41;;;;;;;6.55;2.97;;;16.00;99.90;;;;;;4997096;28;20159;-94
2023/07/05 01:04:08;;;;;;;9.25;3.15;;;16.00;99.90;;;;;;4997394;28;20227;-94
2023/07/05 01:06:33;;;;;;;7.13;2.75;;;16.00;99.90;;;;;;4997235;28;20164;-93
2023/07/05 01:09:01;;;;;;;8.38;3.17;;;16.00;99.90;;;;;;4997361;28;20631;-94
2023/07/05 01:11:51;;;;;;;11.52;2.70;;;16.00;99.90;;;;;;4997179;28;20213;-94
2023/07/05 01:14:32;;;;;;;10.57;3.20;;;16.00;99.90;;;;;;4997129;28;20207;-93
2023/07/05 01:17:21;;;;;;;7.50;3.28;;;16.00;99.90;;;;;;4997204;28;20650;-93
2023/07/05 01:20:12;;;;;;;6.82;2.97;;;16.00;99.90;;;;;;4996882;28;20210;-93
2023/07/05 01:22:58;;;;;;;7.25;2.90;;;16.00;99.90;;;;;;4997082;28;20626;-95
2023/07/05 01:25:51;;;;;;;8.10;3.13;;;16.00;99.90;;;;;;4997008;28;20194;-95
2023/07/05 01:28:19;;;;;;;6.45;2.80;;;16.00;99.90;;;;;;4996745;28;20175;-94
2023/07/05 01:31:15;;;;;;;8.13;2.72;;;16.00;99.90;;;;;;4997720;28;20173;-94
2023/07/05 01:33:51;;;;;;;9.07;3.13;;;16.00;99.90;;;;;;4994795;28;20548;-95
2023/07/05 01:36:19;;;;;;;6.82;3.15;;;16.00;99.90;;;;;;4996759;28;20213;-94
2023/07/05 01:38:45;;;;;;;10.38;3.67;;;16.00;99.90;;;;;;4997546;28;20202;-94
2023/07/05 01:41:11;;;;;;;7.15;3.15;;;16.10;99.90;;;;;;4997274;28;20247;-95
2023/07/05 01:43:40;;;;;;;5.85;2.92;;;16.00;99.90;;;;;;4996982;28;20171;-95
2023/07/05 01:46:24;;;;;;;8.93;3.47;;;16.10;99.90;;;;;;4996989;28;20217;-92
2023/07/05 01:49:06;;;;;;;7.00;3.50;;;16.10;99.90;;;;;;4997119;28;20178;-93
2023/07/05 01:51:58;;;;;;;11.50;3.70;;;16.10;99.90;;;;;;4997960;28;20253;-94
2023/07/05 01:54:45;;;;;;;7.68;3.50;;;16.10;99.90;;;;;;4997934;28;20195;-95
2023/07/05 01:57:17;;;;;;;7.75;3.00;;;16.10;99.90;;;;;;4997344;28;20240;-96
2023/07/05 02:00:15;;;;;;;11.82;3.55;;;16.10;99.90;;;;;;4997110;28;20268;-94
2023/07/05 02:03:07;;;;;;;6.53;3.20;;;16.10;99.90;;;;;;4997329;28;20619;-94
2023/07/05 02:05:35;;;;;;;6.53;3.10;;;16.10;99.90;;;;;;4996743;28;20218;-94
2023/07/05 02:08:02;;;;;;;5.22;3.40;;;16.10;99.90;;;;;;4997914;28;20509;-92
2023/07/05 02:10:28;;;;;;;6.97;3.42;;;16.10;99.90;;;;;;4997809;28;20190;-95
2023/07/05 02:12:56;;;;;;;8.45;3.88;;;16.10;99.90;;;;;;4998352;28;20627;-94
2023/07/05 02:15:23;;;;;;;10.43;3.90;;;16.10;99.90;;;;;;4997895;28;20195;-96
2023/07/05 02:17:49;;;;;;;8.63;3.50;;;16.10;99.90;;;;;;4998166;28;20251;-94
2023/07/05 02:20:14;;;;;;;10.45;4.22;;;16.10;99.90;;;;;;4998335;28;20269;-96
2023/07/05 02:22:40;;;;;;;12.65;4.38;;;16.10;99.90;;;;;;4996464;28;20325;-95
2023/07/05 02:25:06;;;;;;;9.23;4.30;;;16.10;99.90;;;;;;4998885;28;20249;-94
2023/07/05 02:27:32;;;;;;;9.77;4.18;;;16.10;99.90;;;;;;4999742;28;20164;-94
2023/07/05 02:29:58;;;;;;;6.97;3.70;;;16.10;99.90;;;;;;4998103;28;20788;-96
2023/07/05 02:32:25;;;;;;;8.95;4.50;;;16.20;99.90;;;;;;4998309;28;20180;-95
2023/07/05 02:34:52;;;;;;;8.63;4.00;;;16.20;99.90;;;;;;4998317;28;20206;-94
2023/07/05 02:37:19;;;;;;;10.18;3.95;;;16.20;99.90;;;;;;4999036;28;20643;-95
2023/07/05 02:39:45;;;;;;;5.90;3.72;;;16.30;99.90;;;;;;4999182;28;20214;-96
2023/07/05 02:42:13;;;;;;;6.88;3.95;;;16.30;99.90;;;;;;5000363;28;20199;-94
2023/07/05 02:44:39;;;;;;;9.52;4.00;;;16.30;99.90;;;;;;5000542;28;20667;-94
2023/07/05 02:47:05;;;;;;;11.60;4.63;;;16.30;99.90;;;;;;5000464;28;20172;-96
2023/07/05 02:49:31;;;;;;;7.65;4.47;;;16.30;99.90;;;;;;4999379;28;20199;-95
2023/07/05 02:52:00;;;;;;;14.60;4.38;;;16.30;99.90;;;;;;4999317;28;20269;-95
2023/07/05 02:54:25;;;;;;;11.18;4.60;;;16.30;99.90;;;;;;5000381;28;20670;-96
2023/07/05 02:56:51;;;;;;;9.45;4.72;;;16.40;99.90;;;;;;5000422;28;20175;-94
2023/07/05 02:59:17;;;;;;;8.63;4.25;;;16.40;99.90;;;;;;5000847;28;20211;-95
2023/07/05 03:01:43;;;;;;;5.85;4.10;;;16.40;99.90;;;;;;5000001;28;20175;-95
2023/07/05 03:04:08;;;;;;;8.23;4.45;;;16.40;99.90;;;;;;4999507;28;20195;-95
2023/07/05 03:06:34;;;;;;;8.48;4.70;;;16.40;99.90;;;;;;5000038;28;20175;-95
2023/07/05 03:09:00;;;;;;;9.05;4.38;;;16.50;99.90;;;;;;5002658;28;20217;-96
2023/07/05 03:11:26;;;;;;;10.07;4.60;;;16.50;99.90;;;;;;5003154;28;20176;-94
2023/07/05 03:13:52;;;;;;;6.75;4.00;;;16.50;99.90;;;;;;5003266;28;20168;-95
2023/07/05 03:16:18;;;;;;;11.50;4.75;;;16.50;99.90;;;;;;5004220;28;20602;-94
2023/07/05 03:18:46;;;;;;;9.25;4.57;;;16.40;99.90;;;;;;5004040;28;20207;-95
2023/07/05 03:21:12;;;;;;;12.43;4.70;;;16.40;99.90;;;;;;5003614;28;20167;-94
2023/07/05 03:23:37;;;;;;;9.60;4.88;;;16.40;99.90;;;;;;5003759;28;20212;-94
2023/07/05 03:26:09;;;;;;;10.57;4.75;;;16.30;99.90;;;;;;5005982;28;20172;-96
2023/07/05 03:28:36;;;;;;;7.93;4.68;;;16.40;99.90;;;;;;5005030;28;20242;-96
2023/07/05 03:31:05;;;;;;;8.63;5.10;;;16.30;99.90;;;;;;5005070;28;20627;-94
2023/07/05 03:33:33;;;;;;;12.88;5.50;;;16.30;99.90;;;;;;5006252;28;20182;-94
2023/07/05 03:36:01;;;;;;;10.48;5.25;;;16.20;99.90;;;;;;5004080;28;20674;-95
2023/07/05 03:38:28;;;;;;;7.65;5.07;;;16.10;99.90;;;;;;5003940;28;20182;-94
2023/07/05 03:41:06;;;;;;;10.43;5.78;;;16.10;99.90;;;;;;5003732;28;20175;-95
2023/07/05 03:43:36;;;;;;;9.70;4.93;;;16.10;99.90;;;;;;5004488;28;20178;-96
2023/07/05 03:46:04;;;;;;;9.48;5.20;;;16.00;99.90;;;;;;5004337;28;20222;-96
2023/07/05 03:48:33;;;;;;;9.35;5.38;;;16.00;99.90;;;;;;5004684;28;20175;-96
2023/07/05 03:50:59;;;;;;;8.02;5.40;;;16.00;99.90;;;;;;5003435;28;20259;-96
2023/07/05 03:53:26;;;;;;;10.43;5.63;;;16.00;99.90;;;;;;5004322;28;20167;-95
2023/07/05 03:55:52;;;;;;;8.18;4.65;;;15.90;99.90;;;;;;5004376;28;20215;-94
2023/07/05 03:58:18;;;;;;;12.02;5.45;;;15.90;99.90;;;;;;5004002;28;20669;-95
2023/07/05 04:00:46;;;;;;;8.35;5.07;;;15.90;99.90;;;;;;5004372;28;20266;-93
2023/07/05 04:03:13;;;;;;;9.52;5.30;;;15.90;99.90;;;;;;5005588;28;20156;-96
2023/07/05 04:05:40;;;;;;;13.20;5.45;;;16.00;99.90;;;;;;5005310;28;20195;-95
2023/07/05 04:08:06;;;;;;;8.68;5.18;;;16.00;99.90;;;;;;5004341;28;20186;-95
2023/07/05 04:10:31;;;;;;;10.48;5.30;;;16.00;99.90;;;;;;5004945;28;20624;-95
2023/07/05 04:12:57;;;;;;;9.85;5.35;;;16.00;99.90;;;;;;5005817;28;20175;-96
2023/07/05 04:15:23;;;;;;;9.57;5.38;;;16.10;99.90;;;;;;5004206;28;20207;-94
2023/07/05 04:17:50;;;;;;;10.40;5.75;;;16.10;99.90;;;;;;5001856;28;20167;-94
2023/07/05 04:20:16;;;;;;;10.02;5.60;;;16.20;99.90;;;;;;5003932;28;20226;-95
2023/07/05 04:22:42;;;;;;;7.28;5.53;;;16.30;99.90;;;;;;5004809;28;20175;-93
2023/07/05 04:25:09;;;;;;;8.65;6.10;;;16.40;99.90;;;;;;5003857;28;20199;-96
2023/07/05 04:27:35;;;;;;;9.32;5.80;;;16.40;99.90;;;;;;5006137;28;20179;-95
2023/07/05 04:30:03;;;;;;;10.80;5.70;;;16.50;99.90;;;;;;5004253;28;20706;-96
2023/07/05 04:32:30;;;;;;;8.40;5.10;;;16.50;99.90;;;;;;5003711;28;20244;-94
2023/07/05 04:34:56;;;;;;;8.40;5.40;;;16.40;99.90;;;;;;5003538;28;20228;-95
2023/07/05 04:37:22;;;;;;;9.60;5.60;;;16.40;99.90;;;;;;5002622;28;20182;-94
2023/07/05 04:39:48;;;;;;;9.27;5.47;;;16.40;99.90;;;;;;5001784;28;20210;-94
2023/07/05 04:42:14;;;;;;;10.52;5.30;;;16.40;99.90;;;;;;5002235;28;20171;-94
2023/07/05 04:44:40;;;;;;;10.75;6.38;;;16.30;99.90;;;;;;5001175;28;20663;-94
2023/07/05 04:47:07;;;;;;;11.23;5.55;;;16.40;99.90;;;;;;5000695;28;20167;-94
2023/07/05 04:49:33;;;;;;;10.98;6.28;;;16.40;99.90;;;;;;5001570;28;20171;-92
2023/07/05 04:51:59;;;;;;;10.68;6.25;;;16.40;99.90;;;;;;5001724;28;20175;-94
2023/07/05 04:54:25;;;;;;;11.68;6.25;;;16.40;99.90;;;;;;5000782;28;20203;-94
2023/07/05 04:56:52;;;;;;;10.80;6.20;;;16.50;99.90;;;;;;5001080;28;20677;-94
2023/07/05 04:59:19;;;;;;;12.23;6.75;;;16.40;99.90;;;;;;5000853;28;20227;-95
2023/07/05 05:01:49;;;;;;;11.15;6.15;;;16.50;99.90;;;;;;5001729;28;20258;-94
2023/07/05 05:04:15;;;;;;;14.25;6.35;;;16.40;99.90;;;;;;5002127;28;20205;-93
2023/07/05 05:06:44;;;;;;;9.82;6.15;;;16.40;99.90;;;;;;5000142;28;20172;-94
2023/07/05 05:09:09;;;;;;;15.85;6.97;;;16.40;99.90;;;;;;5000646;28;20183;-94
2023/07/05 05:11:35;;;;;;;11.18;6.28;;;16.40;99.90;;;;;;5000414;28;20221;-93
2023/07/05 05:14:01;;;;;;;9.90;6.40;;;16.40;99.90;;;;;;5000242;28;20203;-94
2023/07/05 05:16:27;;;;;;;11.18;6.63;;;16.40;99.90;;;;;;5001122;28;20255;-95
2023/07/05 05:18:53;;;;;;;10.35;6.50;;;16.40;99.90;;;;;;5001190;28;20207;-93
2023/07/05 05:21:19;;;;;;;8.82;5.78;;;16.50;99.90;;;;;;5001243;28;20201;-94
2023/07/05 05:23:44;;;;;;;8.38;6.43;;;16.50;99.90;;;;;;4999182;28;20210;-92
2023/07/05 05:26:11;;;;;;;9.90;7.00;;;16.50;99.90;;;;;;4999804;28;20218;-92
2023/07/05 05:28:36;;;;;;;11.05;7.13;;;16.50;99.90;;;;;;5000028;28;20219;-94
2023/07/05 05:31:11;;;;;;;10.60;6.43;;;16.60;99.90;;;;;;4999359;28;20171;-94
2023/07/05 05:33:37;;;;;;;13.98;6.75;;;16.50;99.90;;;;;;4998473;28;20167;-95
2023/07/05 05:36:03;;;;;;;10.07;6.50;;;16.50;99.90;;;;;;5000043;28;20536;-92
2023/07/05 05:38:29;;;;;;;11.10;6.63;;;16.50;99.90;;;;;;4999707;28;20168;-94
2023/07/05 05:41:04;;;;;;;9.20;6.50;;;16.60;99.90;;;;;;5000727;28;20639;-93
2023/07/05 05:43:30;;;;;;;10.57;6.10;;;16.60;99.90;;;;;;5000338;28;20177;-93
2023/07/05 05:45:56;;;;;;;8.35;5.22;;;16.70;99.90;;;;;;5000338;28;20249;-92
2023/07/05 05:48:22;;;;;;;9.23;5.70;;;16.80;99.90;;;;;;5001401;28;20175;-94
2023/07/05 05:50:48;;;;;;;10.30;5.20;;;16.90;99.90;;;;;;5003616;28;20167;-91
2023/07/05 05:53:16;;;;;;;8.60;5.32;;;17.00;99.90;;;;;;4998659;28;20171;-92
2023/07/05 05:55:42;;;;;;;9.63;5.05;;;17.20;99.90;;;;;;4998910;28;20219;-93
2023/07/05 05:58:08;;;;;;;10.35;5.80;;;17.40;99.90;;;;;;4998134;28;20182;-91
2023/07/05 06:00:36;;;;;;;8.23;4.85;;;17.40;99.90;;;;;;4998104;28;20199;-94
2023/07/05 06:03:03;;;;;;;7.07;5.05;;;17.60;99.90;;;;;;4999314;28;20167;-94
2023/07/05 06:05:29;;;;;;;8.35;5.18;;;17.60;99.90;;;;;;5002270;28;20198;-96
2023/07/05 06:07:55;;;;;;;6.65;4.55;;;17.70;99.90;;;;;;4999559;28;20163;-94
2023/07/05 06:10:24;;;;;;;6.20;4.63;;;17.70;99.90;;;;;;4999820;28;20239;-94
2023/07/05 06:12:50;;;;;;;7.75;4.68;;;17.70;99.90;;;;;;4998962;28;20190;-94
2023/07/05 06:15:16;;;;;;;7.93;5.30;;;17.70;99.90;;;;;;5001303;28;20273;-93
2023/07/05 06:17:41;;;;;;;7.85;4.32;;;17.70;99.90;;;;;;4999619;28;20615;-92
2023/07/05 06:20:10;;;;;;;5.53;4.15;;;17.70;99.90;;;;;;4999725;28;20222;-95
2023/07/05 06:22:37;;;;;;;7.70;4.00;;;17.80;99.90;;;;;;4999973;28;20164;-94
2023/07/05 06:25:03;;;;;;;5.70;4.10;;;17.80;99.90;;;;;;5000495;28;20264;-93
2023/07/05 06:27:31;;;;;;;5.03;3.75;;;17.80;99.90;;;;;;4997568;28;20167;-92
2023/07/05 06:29:57;;;;;;;6.50;4.22;;;17.80;99.90;;;;;;4997766;28;20245;-94
2023/07/05 06:32:23;;;;;;;5.38;4.25;;;17.80;99.90;;;;;;4999396;28;20334;-93
2023/07/05 06:34:49;;;;;;;8.00;4.70;;;17.80;99.90;;;;;;4996923;28;20242;-92
2023/07/05 06:37:15;;;;;;;5.80;4.10;;;17.70;99.90;;;;;;4996591;28;20168;-94
2023/07/05 06:39:41;;;;;;;6.03;4.50;;;17.50;99.90;;;;;;4997509;28;20211;-93
2023/07/05 06:42:08;;;;;;;6.30;4.63;;;17.50;99.90;;;;;;4998946;28;20207;-93
2023/07/05 06:44:34;;;;;;;6.93;4.13;;;17.40;99.90;;;;;;5000534;28;20677;-91
2023/07/05 06:47:00;;;;;;;9.68;3.88;;;17.40;99.90;;;;;;5000377;28;20179;-94
2023/07/05 06:49:26;;;;;;;9.48;4.00;;;17.40;99.90;;;;;;5000071;28;20195;-94
2023/07/05 06:51:54;;;;;;;6.68;3.85;;;17.40;99.90;;;;;;5000015;28;20222;-93
2023/07/05 06:54:20;;;;;;;7.57;4.05;;;17.40;99.90;;;;;;4999550;28;20562;-91
2023/07/05 06:56:46;;;;;;;4.70;3.45;;;17.40;99.90;;;;;;4999811;28;20614;-91
2023/07/05 06:59:12;;;;;;;4.97;3.30;;;17.40;99.90;;;;;;4999140;28;20222;-91
2023/07/05 07:01:38;;;;;;;5.25;3.10;;;17.40;99.90;;;;;;4999632;28;20202;-93
2023/07/05 07:04:05;;;;;;;5.13;2.97;;;17.40;99.90;;;;;;4999828;28;20195;-94
2023/07/05 07:06:32;;;;;;;3.65;2.70;;;17.40;99.90;;;;;;4999978;28;20163;-92
2023/07/05 07:08:58;;;;;;;7.30;2.88;;;17.40;99.90;;;;;;4999543;28;20263;-93
2023/07/05 07:11:24;;;;;;;5.00;2.65;;;17.40;99.90;;;;;;4998656;28;20606;-93
2023/07/05 07:13:49;;;;;;;5.25;2.33;;;17.40;99.90;;;;;;4999606;28;20175;-92
2023/07/05 07:16:16;;;;;;;3.45;2.30;;;17.50;99.90;;;;;;4999656;28;20199;-93
2023/07/05 07:18:47;;;;;;;3.90;2.10;;;17.60;99.90;;;;;;4999684;28;20183;-93
2023/07/05 07:21:14;;;;;;;5.10;2.08;;;17.50;99.90;;;;;;4999303;28;20187;-92
2023/07/05 07:23:40;;;;;;;2.25;1.80;;;17.50;99.90;;;;;;5000256;28;20164;-95
2023/07/05 07:26:10;;;;;;;2.97;1.90;;;17.40;99.90;;;;;;5002874;28;20574;-94
2023/07/05 07:28:36;;;;;;;4.47;1.88;;;17.40;99.90;;;;;;4999713;28;20346;-91
2023/07/05 07:31:13;;;;;;;3.67;1.90;;;17.30;99.90;;;;;;4998733;28;20159;-93
2023/07/05 07:33:42;;;;;;;4.15;2.20;;;17.30;99.90;;;;;;4997661;28;20175;-91
2023/07/05 07:36:17;;;;;;;4.93;2.63;;;17.20;99.90;;;;;;4999421;28;20182;-92
2023/07/05 07:38:43;;;;;;;8.07;2.90;;;17.20;99.90;;;;;;4999305;28;20166;-92
2023/07/05 07:41:13;;;;;;;3.20;1.90;;;17.10;99.90;;;;;;4998863;28;20163;-92
2023/07/05 07:43:39;;;;;;;3.65;2.08;;;17.10;99.90;;;;;;5015809;28;20175;-93
2023/07/05 07:46:13;;;;;;;2.97;1.75;;;17.10;99.90;;;;;;4998864;28;20513;-92
2023/07/05 07:48:41;;;;;;;2.88;1.90;;;17.10;99.90;;;;;;4998929;28;20170;-92
2023/07/05 07:51:08;;;;;;;3.20;2.05;;;17.10;99.90;;;;;;4999135;28;20199;-94
2023/07/05 07:53:34;;;;;;;4.70;2.47;;;17.20;99.90;;;;;;5014690;28;20163;-91
2023/07/05 07:56:00;;;;;;;3.17;2.08;;;17.30;99.90;;;;;;4998288;28;20558;-94
2023/07/05 07:58:26;;;;;;;4.50;2.08;;;17.30;99.90;;;;;;5014919;28;20175;-92
2023/07/05 08:00:53;;;;;;;5.05;2.10;;;17.40;99.90;;;;;;4998172;28;20179;-93
2023/07/05 08:03:18;;;;;;;4.63;2.10;;;17.50;99.90;;;;;;4998719;28;20662;-91
2023/07/05 08:05:50;;;;;;;4.45;2.25;;;17.50;99.90;;;;;;4998239;28;20239;-92
2023/07/05 08:08:18;;;;;;;4.85;2.22;;;17.70;99.90;;;;;;4997996;28;20623;-91
2023/07/05 08:10:43;;;;;;;3.15;2.03;;;17.90;99.90;;;;;;4998138;28;20523;-92
2023/07/05 08:13:09;;;;;;;2.85;1.90;;;18.10;99.90;;;;;;4998301;28;20174;-93
2023/07/05 08:15:35;;;;;;;3.45;2.28;;;18.30;99.90;;;;;;4998113;28;20601;-93
2023/07/05 08:18:01;;;;;;;3.40;2.03;;;18.60;99.90;;;;;;4998159;28;20253;-95
2023/07/05 08:20:27;;;;;;;3.78;2.30;;;18.70;99.90;;;;;;4998087;28;20191;-92
2023/07/05 08:22:52;;;;;;;3.00;2.28;;;18.80;99.90;;;;;;4999224;28;20203;-94
2023/07/05 08:25:18;;;;;;;6.72;2.40;;;18.90;99.90;;;;;;4998785;28;20631;-92
2023/07/05 08:27:44;;;;;;;5.18;2.38;;;19.00;99.90;;;;;;4998461;28;20177;-92
2023/07/05 08:30:10;;;;;;;5.25;2.28;;;19.10;99.90;;;;;;4998174;28;20223;-93
2023/07/05 08:32:37;;;;;;;4.32;2.42;;;19.10;99.90;;;;;;5014363;28;20273;-92
2023/07/05 08:35:04;;;;;;;2.85;2.10;;;19.20;99.90;;;;;;5015675;28;20679;-93
2023/07/05 08:37:30;;;;;;;3.60;2.47;;;19.30;99.90;;;;;;4997819;28;20197;-93
2023/07/05 08:39:56;;;;;;;5.43;2.33;;;19.40;99.90;;;;;;4998306;28;20211;-93
2023/07/05 08:43:08;;;;;;;8.07;2.50;;;19.50;99.90;;;;;;4998245;28;20167;-92
2023/07/05 08:45:44;;;;;;;3.42;2.38;;;19.70;99.90;;;;;;4980721;28;20207;-93
2023/07/05 08:48:12;;;;;;;4.03;2.47;;;19.70;99.90;;;;;;4997523;28;20163;-92
2023/07/05 08:50:44;;;;;;;7.20;2.10;;;19.90;99.90;;;;;;4997599;28;20598;-92
2023/07/05 08:53:18;;;;;;;4.90;2.28;;;20.10;99.90;;;;;;5014128;28;20172;-93
2023/07/05 08:56:00;;;;;;;3.60;2.30;;;20.00;99.90;;;;;;4997532;28;20233;-94
2023/07/05 08:58:48;;;;;;;4.10;2.30;;;19.80;99.90;;;;;;4997357;28;20230;-92
2023/07/05 09:01:24;;;;;;;2.80;2.08;;;19.60;99.90;;;;;;4984134;28;20276;-92
2023/07/05 09:03:50;;;;;;;3.00;2.25;;;19.60;99.90;;;;;;5013846;28;20179;-92
2023/07/05 09:06:29;;;;;;;2.45;1.98;;;19.70;99.90;;;;;;4997461;28;20198;-92
2023/07/05 09:09:07;;;;;;;3.08;1.88;;;19.80;99.90;;;;;;5013645;28;20585;-93
2023/07/05 09:12:03;;;;;;;4.10;2.35;;;20.20;99.90;;;;;;4997444;28;20178;-93
2023/07/05 09:14:41;;;;;;;2.70;2.10;;;20.40;99.90;;;;;;4998318;28;20789;-90
2023/07/05 09:17:49;;;;;;;3.22;2.08;;;20.70;99.90;;;;;;4997608;28;20580;-92
2023/07/05 09:20:53;;;;;;;5.03;1.80;;;20.70;99.90;;;;;;4936445;28;20245;-91
2023/07/05 09:23:25;;;;;;;5.32;2.22;;;20.70;99.90;;;;;;4997272;28;20182;-94
2023/07/05 09:25:59;;;;;;;3.15;2.17;;;20.60;99.90;;;;;;4997103;28;20227;-93
2023/07/05 09:28:32;;;;;;;3.15;2.20;;;20.60;99.90;;;;;;4997130;28;20182;-93
2023/07/05 09:31:01;;;;;;;4.72;2.03;;;20.50;99.90;;;;;;4997417;28;20183;-94
2023/07/05 09:33:44;;;;;;;3.22;2.10;;;20.30;99.90;;;;;;4996685;28;20241;-90
2023/07/05 09:36:28;;;;;;;2.65;2.00;;;20.10;99.90;;;;;;4996676;28;20195;-92
2023/07/05 09:39:27;;;;;;;2.90;2.00;;;20.30;99.90;;;;;;4997329;28;20198;-93
2023/07/05 09:41:56;;;;;;;2.60;1.75;;;20.50;99.90;;;;;;5013393;28;20172;-93
2023/07/05 09:44:22;;;;;;;2.65;2.00;;;20.60;99.90;;;;;;4997478;28;20274;-92
2023/07/05 09:46:49;;;;;;;5.95;2.20;;;20.80;99.90;;;;;;4997408;28;20755;-94
2023/07/05 09:49:16;;;;;;;3.63;2.20;;;20.90;99.90;;;;;;4997617;28;20538;-92
2023/07/05 09:51:45;;;;;;;3.20;2.00;;;21.00;99.90;;;;;;4997517;28;20180;-92
2023/07/05 09:54:26;;;;;;;3.80;2.28;;;21.00;99.90;;;;;;4997390;28;20198;-94
2023/07/05 09:57:04;;;;;;;3.67;1.80;;;21.10;99.90;;;;;;4997377;28;20167;-93
2023/07/05 09:59:31;;;;;;;2.78;1.67;;;21.20;97.80;;;;;;4998630;28;20217;-93
2023/07/05 10:02:12;;;;;;;2.67;1.98;;;21.10;96.00;;;;;;4997323;28;20547;-89
2023/07/05 10:04:49;;;;;;;2.80;1.77;;;21.10;96.90;;;;;;5012998;28;20203;-91
2023/07/05 10:07:24;;;;;;;5.20;1.70;;;21.00;96.20;;;;;;4996828;28;20190;-91
2023/07/05 10:10:05;;;;;;;9.05;1.90;;;21.10;97.40;;;;;;4997013;28;20221;-95
2023/07/05 10:12:37;;;;;;;3.72;1.90;;;21.10;96.50;;;;;;4996364;28;20195;-91
2023/07/05 10:15:20;;;;;;;2.30;1.60;;;21.10;96.30;;;;;;4997033;28;20202;-94
2023/07/05 10:17:46;;;;;;;3.35;1.92;;;21.00;95.20;;;;;;5017075;28;20171;-92
2023/07/05 10:20:21;;;;;;;3.60;1.60;;;21.00;96.20;;;;;;5016867;28;20257;-93
2023/07/05 10:22:47;;;;;;;2.22;1.65;;;21.10;96.80;;;;;;5000862;28;20233;-92
2023/07/05 10:25:19;;;;;;;3.03;1.88;;;21.20;96.10;;;;;;5000321;28;20235;-91
2023/07/05 10:27:51;;;;;;;4.60;1.75;;;21.10;95.10;;;;;;5000173;28;20202;-93
2023/07/05 10:30:21;;;;;;;5.18;1.65;;;21.00;96.00;;;;;;5000162;28;20233;-93
2023/07/05 10:32:56;;;;;;;3.63;2.00;;;21.10;96.80;;;;;;5000155;28;20217;-93
2023/07/05 10:35:24;;;;;;;7.57;2.35;;;21.20;96.00;;;;;;5000279;28;20206;-92
2023/07/05 10:37:51;;;;;;;4.78;2.13;;;21.30;96.60;;;;;;5016477;28;20175;-91
2023/07/05 10:40:18;;;;;;;3.15;2.10;;;21.30;95.70;;;;;;5000652;28;20203;-91
2023/07/05 10:42:49;;;;;;;3.08;1.77;;;21.20;95.10;;;;;;5016790;28;20171;-93
2023/07/05 10:45:19;;;;;;;8.27;2.22;;;21.10;95.60;;;;;;5001384;28;20687;-94
2023/07/05 10:47:54;;;;;;;6.20;1.80;;;21.10;95.00;;;;;;5016531;28;20175;-92
2023/07/05 10:50:32;;;;;;;4.20;1.85;;;21.00;95.50;;;;;;5000478;28;20205;-93
2023/07/05 10:53:15;;;;;;;4.63;2.33;;;20.80;94.40;;;;;;5000034;28;20262;-93
2023/07/05 10:55:49;;;;;;;2.92;1.90;;;20.50;95.10;;;;;;5000714;28;20191;-92
2023/07/05 10:58:21;;;;;;;5.43;1.95;;;20.30;95.50;;;;;;5016718;28;20251;-94
2023/07/05 11:01:17;;;;;;;2.15;1.52;;;20.10;96.90;;;;;;4999932;28;20202;-93
2023/07/05 11:04:05;;;;;;;2.03;1.60;;;20.00;97.40;;;;;;4998033;28;20670;-94
2023/07/05 11:06:35;;;;;;;5.25;1.55;;;19.80;96.50;;;;;;4999523;28;20182;-94
2023/07/05 11:09:02;;;;;;;7.05;1.65;;;19.90;97.20;;;;;;4998705;28;20171;-93
2023/07/05 11:11:32;;;;;;;7.63;1.88;;;20.10;97.80;;;;;;4999641;28;20183;-91
2023/07/05 11:14:07;;;;;;;2.60;1.15;;;20.40;95.90;;;;;;5015774;28;20206;-94
2023/07/05 11:16:33;;;;;;;4.25;1.50;;;20.40;96.50;;;;;;4999362;28;20175;-91
2023/07/05 11:19:05;;;;;;;3.95;1.63;;;20.50;96.00;;;;;;4999506;28;20690;-92
2023/07/05 11:21:46;;;;;;;2.40;1.42;;;20.30;95.40;;;;;;4999478;28;20229;-93
2023/07/05 11:24:33;;;;;;;2.50;1.38;;;20.30;95.60;;;;;;4999707;28;20198;-92
2023/07/05 11:27:00;;;;;;;4.18;1.30;;;20.10;95.40;;;;;;4999522;28;20245;-91
2023/07/05 11:29:31;;;;;;;4.43;1.52;;;19.90;95.70;;;;;;4999331;28;20722;-93
2023/07/05 11:32:03;;;;;;;4.07;1.50;;;19.90;95.90;;;;;;5015587;28;20179;-93
2023/07/05 11:34:31;;;;;;;3.67;1.40;;;20.00;96.30;;;;;;4999593;28;20203;-91
2023/07/05 11:37:03;;;;;;;4.38;1.35;;;19.90;96.10;;;;;;5015807;28;20179;-95
2023/07/05 11:39:34;;;;;;;3.50;1.55;;;20.10;96.60;;;;;;5015839;28;20200;-93
2023/07/05 11:42:12;;;;;;;3.65;1.52;;;20.40;96.20;;;;;;5015320;28;20190;-92
2023/07/05 11:44:42;;;;;;;1.90;1.30;;;20.60;95.90;;;;;;5015282;28;20297;-91
2023/07/05 11:47:10;;;;;;;4.28;1.23;;;20.50;96.80;;;;;;4999803;28;20186;-94
2023/07/05 11:49:41;;;;;;;2.35;1.30;;;20.30;95.30;;;;;;5015775;28;20176;-94
2023/07/05 11:52:21;;;;;;;3.60;1.50;;;20.30;97.70;;;;;;5000388;28;20266;-95
2023/07/05 11:55:13;;;;;;;2.40;1.13;;;20.60;96.90;;;;;;4999479;28;20297;-93
2023/07/05 11:58:00;;;;;;;4.18;1.52;;;20.70;96.40;;;;;;5005251;28;20195;-90
2023/07/05 12:00:39;;;;;;;2.22;1.10;;;20.80;95.30;;;;;;5000011;28;20286;-93
2023/07/05 12:03:22;;;;;;;1.10;0.90;;;20.90;95.00;;;;;;4998749;28;20612;-92
2023/07/05 12:06:03;;;;;;;2.60;0.98;;;21.10;95.00;;;;;;4998451;28;20207;-95
2023/07/05 12:08:36;;;;;;;2.63;1.00;;;21.30;95.20;;;;;;5014681;28;20167;-93
2023/07/05 12:11:03;;;;;;;1.83;1.23;;;21.70;96.50;;;;;;4998249;28;20655;-94
2023/07/05 12:13:34;;;;;;;1.77;0.80;;;22.00;95.70;;;;;;4998691;28;20207;-94
2023/07/05 12:16:03;;;;;;;4.45;0.98;;;21.80;95.30;;;;;;4998621;28;20198;-93
2023/07/05 12:18:31;;;;;;;2.00;1.27;;;21.50;94.40;;;;;;5014951;28;20178;-92
2023/07/05 12:20:58;;;;;;;5.68;1.27;;;21.40;94.70;;;;;;5014730;28;20346;-92
2023/07/05 12:23:28;;;;;;;1.60;1.00;;;21.30;95.50;;;;;;4998473;28;20164;-93
2023/07/05 12:25:57;;;;;;;2.40;1.23;;;21.20;96.00;;;;;;4998649;28;20290;-92
2023/07/05 12:28:29;;;;;;;3.45;1.08;;;20.90;95.10;;;;;;4998290;28;20164;-93
2023/07/05 12:31:07;;;;;;;8.70;1.58;;;20.60;95.00;;;;;;4999743;28;20274;-95
2023/07/05 12:33:35;;;;;;;3.08;1.30;;;20.20;94.70;;;;;;5000760;28;20182;-91
2023/07/05 12:36:15;;;;;;;3.83;1.38;;;20.20;95.20;;;;;;4998730;28;20203;-92
2023/07/05 12:38:44;;;;;;;5.65;1.20;;;20.30;96.80;;;;;;4998713;28;20581;-91
2023/07/05 12:41:20;;;;;;;1.30;1.00;;;20.30;95.70;;;;;;4998450;28;20182;-93
2023/07/05 12:43:57;;;;;;;3.30;1.55;;;20.30;95.60;;;;;;5015091;28;20645;-93
2023/07/05 12:46:25;;;;;;;4.82;1.25;;;20.60;95.20;;;;;;4999150;28;20615;-92
2023/07/05 12:48:50;;;;;;;2.65;1.10;;;20.50;94.70;;;;;;4998602;28;20512;-92
2023/07/05 12:51:28;;;;;;;2.78;1.00;;;20.40;94.80;;;;;;4997800;28;20226;-94
2023/07/05 12:53:59;;;;;;;3.63;1.10;;;20.30;95.50;;;;;;5014589;28;20179;-92
2023/07/05 12:56:38;;;;;;;2.92;1.10;;;20.40;94.90;;;;;;4998577;28;20226;-94
2023/07/05 12:59:06;;;;;;;1.60;1.25;;;20.60;95.10;;;;;;4998334;28;20199;-93
2023/07/05 13:01:41;;;;;;;3.15;1.23;;;20.70;94.80;;;;;;4999642;28;20227;-92